Airfield :
LOGIN :

Register | Disclaimer

   EN    FR    IT 

 










Legend :    VFR   Marginal VFR   IFR   Intensive IFR   Very Intensive IFR
Visi :
Ceiling :
>= 8 km
>= 3000ft
5 to 8 km
1000 to 3000 ft
1500m to 5 km
500 to 1000 ft
800 to 1500m
200 to 500 ft
< 800m
< 200 ft
Symbols :   Thunderstorms  Fog  Heavy snow  Heavy precipitations  Wind > 20 kt
SIGMETs :     Misc.  Thunderstorms  Icing  Turbulence  Mountain Waves  Volcanic Ashes







- Airport Elevation : 24 ft
- IATA code : IBZ


LEIB - Ibiza

CURRENT METAR :
  • 211700Z 13006KT 080V170 9999 FEW020 29/21 Q1012 NOSIG

EXPIRED METARs :
  • 211630Z VRB06KT 9999 SCT025 29/23 Q1012 NOSIG
  • 211600Z 22008KT 9999 SCT025 30/21 Q1012 NOSIG
  • 211530Z 21009KT 180V240 9999 SCT025 29/22 Q1012 NOSIG
  • 211500Z 20009KT 170V230 9999 SCT025 30/22 Q1012 NOSIG
  • 211430Z 20010KT 170V230 9999 FEW025 SCT036 29/23 Q1012 NOSIG

TAF TAF LEIB
Valid from the 21 at 15:00 until the 22 at 15:00 UTC


211400Z 2115/2215 10009KT 9999 FEW025 TX31/2212Z TN21/2205Z
PROB40 2115/2120 18008KT
PROB40
TEMPO 2121/2206 BKN014
PROB30
TEMPO 2206/2214 FEW060CB
No reported NOTAMs for that airfield.



MET'MAP, your aeronautical weather chart ! - Copyright ORBIFLY December 2007 - Disclaimer

ORBIFLY MET'MAP TEAM :

Programming & Development : Alexandra Zaïnal
Concept & Development : Baudouin d'Aumeries
Co-Development & Prog : Marc-Olivier Méhu
Technical & hardware support : Manuel Goepfert

Contact : metmap@orbifly.com




SOURCES & CREDITS :

   NOAA